Time;durP1;ratioP1;P1;durP2;ratioP2;P2;SDS_P1;SDS_P2;PMS_P1;PMS_P2;Temp;Humidity;BMP_temperature;BMP_pressure;BME280_temperature;BME280_humidity;BME280_pressure;Samples;Min_cycle;Max_cycle;Signal;HPM_P1;HPM_P2
2023/04/16 00:01:39;;;;;;;4.30;1.57;;;22.10;60.20;;;;;;5064855;28;20229;-67
2023/04/16 00:04:07;;;;;;;2.37;1.17;;;22.00;59.90;;;;;;5064728;28;20641;-69
2023/04/16 00:06:35;;;;;;;3.60;1.40;;;22.10;59.60;;;;;;5067464;28;20290;-69
2023/04/16 00:09:03;;;;;;;1.70;1.17;;;22.10;60.00;;;;;;5065019;28;20203;-70
2023/04/16 00:11:30;;;;;;;3.40;1.20;;;22.10;60.40;;;;;;5069316;28;20638;-71
2023/04/16 00:13:58;;;;;;;4.00;1.30;;;22.10;60.20;;;;;;5067472;28;20206;-68
2023/04/16 00:16:25;;;;;;;4.57;1.17;;;22.20;60.90;;;;;;5070306;28;20175;-71
2023/04/16 00:18:53;;;;;;;2.97;1.20;;;22.10;60.90;;;;;;5065668;28;20183;-69
2023/04/16 00:21:20;;;;;;;2.87;1.23;;;22.20;60.40;;;;;;5067586;28;20610;-69
2023/04/16 00:23:47;;;;;;;4.60;1.40;;;22.20;60.20;;;;;;5070137;28;20267;-68
2023/04/16 00:26:15;;;;;;;3.07;1.37;;;22.20;60.40;;;;;;5068465;28;20183;-69
2023/04/16 00:28:42;;;;;;;2.23;1.07;;;22.30;60.30;;;;;;5069865;28;20594;-68
2023/04/16 00:31:09;;;;;;;2.97;1.20;;;22.30;60.40;;;;;;5073949;28;20266;-69
2023/04/16 00:33:37;;;;;;;2.67;1.00;;;22.30;60.30;;;;;;5071786;28;20186;-69
2023/04/16 00:36:04;;;;;;;3.33;1.40;;;22.30;60.90;;;;;;5069418;28;20186;-70
2023/04/16 00:38:32;;;;;;;3.07;1.30;;;22.40;60.40;;;;;;5072662;28;20175;-70
2023/04/16 00:40:59;;;;;;;4.57;1.50;;;22.60;60.50;;;;;;5071489;28;20713;-69
2023/04/16 00:43:27;;;;;;;6.33;1.43;;;22.80;60.10;;;;;;5071875;28;20560;-70
2023/04/16 00:45:56;;;;;;;3.13;1.90;;;22.80;60.00;;;;;;5069816;28;20191;-67
2023/04/16 00:48:26;;;;;;;7.00;1.50;;;22.70;59.90;;;;;;5070998;28;20215;-68
2023/04/16 00:50:54;;;;;;;3.67;1.10;;;22.80;59.60;;;;;;5072117;28;20183;-72
2023/04/16 00:53:21;;;;;;;3.47;1.30;;;22.70;60.00;;;;;;5070292;28;20199;-71
2023/04/16 00:55:49;;;;;;;5.53;1.50;;;22.70;60.30;;;;;;5072595;28;20207;-69
2023/04/16 00:58:17;;;;;;;6.10;1.63;;;22.70;60.60;;;;;;5073308;28;20175;-67
2023/04/16 01:00:45;;;;;;;1.97;1.47;;;22.80;60.80;;;;;;5073888;28;20179;-68
2023/04/16 01:03:12;;;;;;;6.70;1.60;;;22.80;60.60;;;;;;5070994;28;20184;-68
2023/04/16 01:05:40;;;;;;;3.73;1.63;;;22.70;60.80;;;;;;5073774;28;20656;-67
2023/04/16 01:08:14;;;;;;;5.57;1.27;;;22.80;61.00;;;;;;5075232;28;20219;-67
2023/04/16 01:10:41;;;;;;;3.37;1.57;;;22.80;60.90;;;;;;5073902;28;20223;-67
2023/04/16 01:13:08;;;;;;;4.37;1.30;;;22.80;60.80;;;;;;5073565;28;20309;-67
2023/04/16 01:15:36;;;;;;;4.70;1.40;;;22.80;60.90;;;;;;5072987;28;20175;-67
2023/04/16 01:18:13;;;;;;;2.80;1.63;;;22.80;60.30;;;;;;5071885;28;20175;-67
2023/04/16 01:20:40;;;;;;;2.97;1.30;;;22.80;60.40;;;;;;5069259;28;20634;-68
2023/04/16 01:23:07;;;;;;;1.40;1.30;;;22.80;59.80;;;;;;5072658;28;20179;-72
2023/04/16 01:25:35;;;;;;;5.87;1.67;;;22.90;59.50;;;;;;5073594;28;20181;-72
2023/04/16 01:28:02;;;;;;;2.17;1.43;;;23.00;59.60;;;;;;5071494;28;20215;-71
2023/04/16 01:30:30;;;;;;;6.07;1.20;;;23.10;59.10;;;;;;5074487;28;20178;-71
2023/04/16 01:32:58;;;;;;;5.03;1.23;;;23.20;58.60;;;;;;5072755;28;20184;-73
2023/04/16 01:35:26;;;;;;;3.33;1.30;;;23.30;58.10;;;;;;5073534;28;20187;-71
2023/04/16 01:37:54;;;;;;;5.70;1.33;;;23.40;58.00;;;;;;5072704;28;20187;-69
2023/04/16 01:40:21;;;;;;;3.47;1.27;;;23.50;57.40;;;;;;5084485;28;20183;-67
2023/04/16 01:42:49;;;;;;;4.07;1.10;;;23.50;57.70;;;;;;5071127;28;20545;-68
2023/04/16 01:45:17;;;;;;;4.20;1.27;;;23.60;57.20;;;;;;5070555;28;20229;-69
2023/04/16 01:47:44;;;;;;;1.30;0.90;;;23.70;56.60;;;;;;5070967;28;20218;-64
2023/04/16 01:50:12;;;;;;;2.17;1.23;;;23.80;56.70;;;;;;5071961;28;20191;-65
2023/04/16 01:52:39;;;;;;;6.60;1.33;;;23.80;56.60;;;;;;5066078;28;20188;-67
2023/04/16 01:55:06;;;;;;;7.73;1.40;;;23.80;56.50;;;;;;5069095;28;20222;-66
2023/04/16 01:57:34;;;;;;;4.43;1.53;;;23.90;56.10;;;;;;5073029;28;20179;-67
2023/04/16 02:00:02;;;;;;;5.60;1.43;;;23.90;56.10;;;;;;5066682;28;20241;-67
2023/04/16 02:02:29;;;;;;;2.30;1.27;;;23.90;56.40;;;;;;5066968;28;20183;-68
2023/04/16 02:04:57;;;;;;;2.87;1.30;;;24.00;56.80;;;;;;5072088;28;20183;-66
2023/04/16 02:07:26;;;;;;;2.30;1.30;;;24.00;56.50;;;;;;5069410;28;20578;-68
2023/04/16 02:09:53;;;;;;;4.60;1.10;;;24.20;56.10;;;;;;5071463;28;20225;-69
2023/04/16 02:12:21;;;;;;;3.50;1.47;;;24.30;56.00;;;;;;5073137;28;20647;-69
2023/04/16 02:14:48;;;;;;;6.83;1.57;;;24.40;55.40;;;;;;5071969;28;20203;-67
2023/04/16 02:17:16;;;;;;;3.90;1.10;;;24.50;55.70;;;;;;5073563;28;20183;-66
2023/04/16 02:19:43;;;;;;;5.33;1.67;;;24.50;55.20;;;;;;5068986;28;20283;-67
2023/04/16 02:22:11;;;;;;;2.40;1.27;;;24.70;56.10;;;;;;5073745;28;20179;-69
2023/04/16 02:24:38;;;;;;;2.57;1.33;;;24.70;54.90;;;;;;5073369;28;20186;-66
2023/04/16 02:27:05;;;;;;;3.40;1.40;;;24.80;55.60;;;;;;5072427;28;20570;-67
2023/04/16 02:29:33;;;;;;;3.13;1.60;;;24.90;54.80;;;;;;5073031;28;20564;-68
2023/04/16 02:32:00;;;;;;;4.90;1.57;;;24.80;54.80;;;;;;5074320;28;20301;-68
2023/04/16 02:34:27;;;;;;;3.87;1.40;;;24.80;55.80;;;;;;5076301;28;20199;-68
2023/04/16 02:36:57;;;;;;;2.90;1.40;;;24.60;56.10;;;;;;5068777;28;20585;-67
2023/04/16 02:39:24;;;;;;;3.77;1.67;;;24.40;56.40;;;;;;5068353;28;20532;-68
2023/04/16 02:41:52;;;;;;;3.57;1.50;;;24.30;57.30;;;;;;5068529;28;20195;-67
2023/04/16 02:44:19;;;;;;;2.07;1.30;;;24.30;57.20;;;;;;5070054;28;20222;-67
2023/04/16 02:46:46;;;;;;;5.37;1.23;;;24.20;57.40;;;;;;5071559;28;20237;-67
2023/04/16 02:49:14;;;;;;;5.03;1.50;;;24.40;57.00;;;;;;5071141;28;20258;-68
2023/04/16 02:51:41;;;;;;;1.77;1.20;;;24.60;57.20;;;;;;5070994;28;20705;-68
2023/04/16 02:54:08;;;;;;;1.87;1.33;;;24.80;56.60;;;;;;5066349;28;20229;-67
2023/04/16 02:56:36;;;;;;;2.90;1.30;;;24.90;56.60;;;;;;5069429;28;20243;-67
2023/04/16 02:59:03;;;;;;;1.83;1.30;;;25.00;56.00;;;;;;5070592;28;20614;-67
2023/04/16 03:01:31;;;;;;;3.87;1.47;;;25.10;56.70;;;;;;5071354;28;20802;-68
2023/04/16 03:03:58;;;;;;;5.27;1.43;;;25.10;56.30;;;;;;5071136;28;20191;-67
2023/04/16 03:06:25;;;;;;;3.70;1.20;;;25.00;56.40;;;;;;5071467;28;20221;-71
2023/04/16 03:08:53;;;;;;;3.20;1.40;;;24.90;56.30;;;;;;5072597;28;20240;-69
2023/04/16 03:11:20;;;;;;;4.30;1.70;;;24.80;57.10;;;;;;5072526;28;20723;-70
2023/04/16 03:13:47;;;;;;;2.67;1.60;;;24.70;57.50;;;;;;5070898;28;20179;-71
2023/04/16 03:16:15;;;;;;;2.43;1.43;;;24.60;58.40;;;;;;5070383;28;20187;-70
2023/04/16 03:18:42;;;;;;;7.67;2.33;;;24.50;58.30;;;;;;5070281;28;20567;-71
2023/04/16 03:21:09;;;;;;;5.63;1.83;;;24.30;59.20;;;;;;5070588;28;20179;-69
2023/04/16 03:23:37;;;;;;;2.73;1.67;;;24.30;59.00;;;;;;5072291;28;20285;-71
2023/04/16 03:26:05;;;;;;;6.27;1.70;;;24.30;59.00;;;;;;5072483;28;20175;-71
2023/04/16 03:28:32;;;;;;;7.57;1.87;;;24.30;58.90;;;;;;5072058;28;20222;-68
2023/04/16 03:31:00;;;;;;;6.03;2.40;;;24.20;59.80;;;;;;5070464;28;20656;-70
2023/04/16 03:33:27;;;;;;;2.43;1.57;;;24.20;60.30;;;;;;5070672;28;20171;-69
2023/04/16 03:35:56;;;;;;;6.43;2.20;;;24.10;55.80;;;;;;5070544;28;20175;-69
2023/04/16 03:38:27;;;;;;;3.67;1.70;;;24.20;55.50;;;;;;5070703;28;20593;-71
2023/04/16 03:40:55;;;;;;;4.07;1.60;;;24.20;55.20;;;;;;5069631;28;20178;-68
2023/04/16 03:43:22;;;;;;;4.33;1.30;;;24.20;52.50;;;;;;5070480;28;20646;-74
2023/04/16 03:45:49;;;;;;;5.63;1.33;;;24.30;51.60;;;;;;5070303;28;20279;-73
2023/04/16 03:48:17;;;;;;;3.50;1.30;;;24.30;51.00;;;;;;5067224;28;20268;-72
2023/04/16 03:50:47;;;;;;;2.77;1.20;;;24.50;50.20;;;;;;5068753;28;20224;-71
2023/04/16 03:53:15;;;;;;;2.70;1.30;;;24.60;49.10;;;;;;5070368;28;20190;-73
2023/04/16 03:55:42;;;;;;;3.27;1.07;;;24.70;48.40;;;;;;5066213;28;20185;-75
2023/04/16 03:58:10;;;;;;;4.20;1.10;;;24.80;48.00;;;;;;5070009;28;20191;-70
2023/04/16 04:00:40;;;;;;;2.33;0.97;;;24.70;48.60;;;;;;5070435;28;20649;-73
2023/04/16 04:03:08;;;;;;;2.73;1.20;;;24.60;48.20;;;;;;5061279;28;20191;-70
2023/04/16 04:05:40;;;;;;;1.83;1.10;;;24.70;48.30;;;;;;5070350;28;20186;-72
2023/04/16 04:08:08;;;;;;;3.67;1.00;;;24.70;48.40;;;;;;5058922;28;20223;-72
2023/04/16 04:10:36;;;;;;;1.63;0.73;;;24.80;48.50;;;;;;4949553;28;3361201;-70
2023/04/16 04:13:04;;;;;;;1.87;0.80;;;25.00;47.40;;;;;;5071885;28;20175;-71
2023/04/16 04:15:32;;;;;;;1.57;0.70;;;26.00;46.20;;;;;;5066266;28;20183;-73
2023/04/16 04:17:59;;;;;;;1.20;0.60;;;26.60;44.30;;;;;;5070151;28;20191;-67
2023/04/16 04:20:27;;;;;;;1.20;0.57;;;26.70;43.40;;;;;;5068953;28;20672;-67
2023/04/16 04:22:54;;;;;;;0.97;0.67;;;26.70;43.30;;;;;;5065311;28;20187;-68
2023/04/16 04:25:21;;;;;;;0.63;0.50;;;26.60;42.50;;;;;;5070403;28;20224;-67
2023/04/16 04:27:49;;;;;;;3.00;0.87;;;26.80;41.80;;;;;;5065284;28;20302;-68
2023/04/16 04:30:16;;;;;;;1.17;0.50;;;27.00;41.60;;;;;;5071093;28;20177;-66
2023/04/16 04:32:43;;;;;;;2.17;0.70;;;27.30;39.40;;;;;;5072127;28;20270;-67
2023/04/16 04:35:11;;;;;;;1.83;0.50;;;27.70;37.40;;;;;;5070505;28;20185;-66
2023/04/16 04:37:38;;;;;;;0.47;0.40;;;27.20;36.10;;;;;;5068100;28;20294;-67
2023/04/16 04:40:06;;;;;;;0.50;0.50;;;27.20;35.00;;;;;;5068281;28;20191;-64
2023/04/16 04:42:37;;;;;;;1.10;0.60;;;27.20;35.20;;;;;;5069914;28;20187;-66
2023/04/16 04:45:05;;;;;;;3.03;0.73;;;27.80;34.70;;;;;;5069862;28;20210;-68
2023/04/16 04:47:33;;;;;;;2.00;0.47;;;27.70;33.30;;;;;;5074968;28;20261;-66
2023/04/16 04:50:00;;;;;;;1.77;0.40;;;27.30;32.30;;;;;;5070504;28;20229;-67
2023/04/16 04:52:27;;;;;;;0.87;0.40;;;27.50;32.30;;;;;;5063893;28;20175;-67
2023/04/16 04:54:55;;;;;;;0.63;0.40;;;27.40;32.30;;;;;;5070312;28;20204;-69
2023/04/16 04:57:22;;;;;;;1.27;0.50;;;27.50;32.10;;;;;;5070239;28;20215;-67
2023/04/16 04:59:49;;;;;;;1.10;0.50;;;27.20;32.60;;;;;;5069605;28;20179;-67
2023/04/16 05:02:17;;;;;;;1.83;0.70;;;27.90;32.30;;;;;;5070594;28;20187;-67
2023/04/16 05:04:44;;;;;;;0.73;0.50;;;28.40;31.00;;;;;;5070804;28;20245;-68
2023/04/16 05:07:12;;;;;;;1.43;0.50;;;28.90;30.50;;;;;;5068809;28;20210;-67
2023/04/16 05:09:39;;;;;;;0.55;0.50;;;29.30;29.40;;;;;;5073531;28;20233;-67
2023/04/16 05:12:07;;;;;;;0.98;0.40;;;29.20;30.20;;;;;;5073939;28;20243;-71
2023/04/16 05:14:35;;;;;;;1.13;0.50;;;28.70;31.10;;;;;;5074181;28;20187;-72
2023/04/16 05:17:02;;;;;;;1.67;0.30;;;28.80;30.00;;;;;;5073682;28;20191;-69
2023/04/16 05:19:29;;;;;;;0.40;0.30;;;28.00;29.40;;;;;;5073762;28;20190;-67
2023/04/16 05:21:57;;;;;;;0.20;0.20;;;28.00;29.50;;;;;;5076420;28;20187;-69
2023/04/16 05:24:24;;;;;;;0.87;0.40;;;27.70;29.40;;;;;;5068918;28;20644;-66
2023/04/16 05:26:51;;;;;;;0.93;0.47;;;27.80;30.10;;;;;;5074541;28;20260;-66
2023/04/16 05:29:19;;;;;;;1.40;0.40;;;27.60;30.60;;;;;;5073654;28;20282;-70
2023/04/16 05:31:46;;;;;;;1.53;0.40;;;27.30;30.90;;;;;;5073070;28;20183;-72
2023/04/16 05:34:13;;;;;;;1.00;0.47;;;27.20;31.40;;;;;;5074200;28;20186;-67
2023/04/16 05:36:41;;;;;;;2.77;0.50;;;27.40;31.30;;;;;;5072802;28;20191;-66
2023/04/16 05:39:09;;;;;;;0.70;0.60;;;27.00;31.40;;;;;;5072890;28;20532;-67
2023/04/16 05:41:36;;;;;;;0.40;0.40;;;26.80;31.20;;;;;;5073108;28;20179;-68
2023/04/16 05:44:04;;;;;;;0.40;0.40;;;26.80;31.30;;;;;;5073220;28;20277;-69
2023/04/16 05:46:31;;;;;;;1.43;0.43;;;26.60;31.50;;;;;;5073062;28;20190;-66
2023/04/16 05:49:01;;;;;;;0.43;0.40;;;26.30;32.00;;;;;;5073050;28;20662;-66
2023/04/16 05:51:29;;;;;;;1.23;0.50;;;26.60;31.90;;;;;;5072844;28;20699;-69
2023/04/16 05:53:56;;;;;;;0.87;0.60;;;26.30;32.30;;;;;;5066993;28;20183;-70
2023/04/16 05:56:24;;;;;;;0.63;0.40;;;26.70;31.70;;;;;;5072927;28;20656;-69
2023/04/16 05:58:51;;;;;;;0.90;0.37;;;26.80;31.70;;;;;;5072887;28;20543;-66
2023/04/16 06:01:18;;;;;;;0.50;0.43;;;26.70;31.40;;;;;;5071620;28;20191;-67
2023/04/16 06:03:46;;;;;;;1.03;0.60;;;27.10;31.40;;;;;;5073712;28;20694;-66
2023/04/16 06:06:13;;;;;;;0.90;0.40;;;27.10;31.20;;;;;;5069585;28;20179;-66
2023/04/16 06:08:40;;;;;;;0.50;0.50;;;27.00;31.40;;;;;;5069257;28;20211;-67
2023/04/16 06:11:08;;;;;;;1.53;0.40;;;26.80;31.50;;;;;;5067014;28;20584;-65
2023/04/16 06:13:36;;;;;;;0.40;0.40;;;26.20;32.00;;;;;;5071125;28;20183;-66
2023/04/16 06:16:03;;;;;;;0.60;0.40;;;27.00;31.50;;;;;;5072413;28;20605;-67
2023/04/16 06:18:31;;;;;;;0.30;0.30;;;27.50;30.90;;;;;;5071079;28;20562;-67
2023/04/16 06:20:58;;;;;;;1.37;0.50;;;26.80;31.20;;;;;;5071612;28;20286;-66
2023/04/16 06:23:25;;;;;;;0.40;0.40;;;26.70;32.00;;;;;;5071980;28;20258;-68
2023/04/16 06:25:53;;;;;;;0.93;0.40;;;25.90;32.40;;;;;;5071593;28;20190;-67
2023/04/16 06:28:20;;;;;;;1.37;0.60;;;25.80;33.10;;;;;;5070742;28;20249;-68
2023/04/16 06:30:48;;;;;;;0.50;0.50;;;25.80;33.00;;;;;;5071556;28;20498;-64
2023/04/16 06:33:15;;;;;;;0.40;0.40;;;26.00;32.70;;;;;;5072387;28;20261;-66
2023/04/16 06:35:43;;;;;;;1.00;0.40;;;25.80;33.10;;;;;;5067813;28;20175;-67
2023/04/16 06:38:10;;;;;;;0.50;0.43;;;25.50;33.10;;;;;;5069995;28;20624;-69
2023/04/16 06:40:38;;;;;;;0.93;0.37;;;25.00;33.90;;;;;;5069645;28;20183;-72
2023/04/16 06:43:05;;;;;;;1.17;0.50;;;24.80;33.90;;;;;;5068899;28;20175;-71
2023/04/16 06:45:33;;;;;;;0.70;0.60;;;24.30;34.80;;;;;;5068051;28;20187;-69
2023/04/16 06:48:02;;;;;;;0.60;0.40;;;23.70;35.70;;;;;;5070827;28;20215;-73
2023/04/16 06:50:29;;;;;;;0.47;0.47;;;23.40;36.50;;;;;;5070823;28;20681;-74
2023/04/16 06:52:57;;;;;;;0.30;0.30;;;23.10;35.60;;;;;;5070846;28;20211;-73
2023/04/16 06:55:24;;;;;;;0.60;0.60;;;23.00;34.70;;;;;;5071884;28;20189;-71
2023/04/16 06:57:51;;;;;;;1.80;0.30;;;23.10;34.90;;;;;;5071829;28;20195;-70
2023/04/16 07:00:19;;;;;;;0.57;0.50;;;22.90;35.40;;;;;;5071154;28;20182;-66
2023/04/16 07:02:46;;;;;;;0.70;0.70;;;22.60;36.10;;;;;;5074461;28;20176;-64
2023/04/16 07:05:14;;;;;;;0.50;0.50;;;22.50;36.40;;;;;;5071373;28;20568;-66
2023/04/16 07:07:41;;;;;;;0.70;0.60;;;22.30;36.60;;;;;;5068995;28;20277;-65
2023/04/16 07:10:09;;;;;;;0.93;0.57;;;22.30;37.10;;;;;;5067719;28;20276;-65
2023/04/16 07:12:36;;;;;;;0.50;0.50;;;22.20;35.60;;;;;;5071759;28;20660;-64
2023/04/16 07:15:05;;;;;;;0.60;0.60;;;22.10;35.80;;;;;;5070379;28;20178;-68
2023/04/16 07:17:32;;;;;;;1.10;0.63;;;22.00;36.00;;;;;;5070080;28;20187;-66
2023/04/16 07:19:59;;;;;;;2.07;0.60;;;21.90;36.10;;;;;;5069946;28;20175;-66
2023/04/16 07:22:26;;;;;;;1.30;0.60;;;21.80;36.20;;;;;;5071587;28;20593;-66
2023/04/16 07:24:54;;;;;;;1.07;0.70;;;21.80;36.10;;;;;;5069966;28;20176;-66
2023/04/16 07:27:22;;;;;;;1.07;0.70;;;21.70;36.20;;;;;;5071936;28;20616;-65
2023/04/16 07:29:49;;;;;;;0.67;0.60;;;21.70;36.50;;;;;;5070619;28;20198;-65
2023/04/16 07:32:17;;;;;;;1.03;0.67;;;21.50;36.30;;;;;;5069821;28;20191;-66
2023/04/16 07:34:44;;;;;;;1.50;0.80;;;21.50;36.40;;;;;;5072408;28;20266;-65
2023/04/16 07:37:11;;;;;;;0.90;0.70;;;21.40;36.60;;;;;;5071163;28;20233;-66
2023/04/16 07:39:39;;;;;;;0.70;0.70;;;21.30;37.00;;;;;;5071049;28;20175;-66
2023/04/16 07:42:06;;;;;;;0.97;0.80;;;21.30;37.10;;;;;;5071597;28;20176;-66
2023/04/16 07:44:34;;;;;;;1.23;0.83;;;21.20;37.60;;;;;;5074101;28;20189;-64
2023/04/16 07:47:01;;;;;;;2.57;0.80;;;21.20;37.90;;;;;;5066514;28;20214;-65
2023/04/16 07:49:28;;;;;;;0.93;0.83;;;21.20;37.80;;;;;;5071198;28;20191;-66
2023/04/16 07:51:56;;;;;;;1.87;1.00;;;21.10;37.90;;;;;;5070253;28;20177;-66
2023/04/16 07:54:23;;;;;;;1.43;0.70;;;21.10;38.50;;;;;;5066983;28;20175;-66
2023/04/16 07:56:50;;;;;;;1.50;0.97;;;21.00;38.70;;;;;;5070714;28;20184;-66
2023/04/16 07:59:18;;;;;;;0.80;0.80;;;20.90;38.80;;;;;;5071129;28;20187;-66
2023/04/16 08:01:45;;;;;;;0.90;0.80;;;20.90;38.80;;;;;;5068016;28;20262;-63
2023/04/16 08:04:13;;;;;;;1.73;0.83;;;20.80;38.80;;;;;;5068829;28;20183;-66
2023/04/16 08:06:40;;;;;;;0.70;0.70;;;20.80;38.60;;;;;;5070283;28;20720;-66
2023/04/16 08:09:07;;;;;;;1.87;0.80;;;20.80;37.90;;;;;;5066483;28;20235;-66
2023/04/16 08:11:35;;;;;;;1.17;0.57;;;20.80;37.90;;;;;;5070645;28;20183;-66
2023/04/16 08:14:02;;;;;;;0.80;0.80;;;20.70;37.20;;;;;;5070530;28;20240;-67
2023/04/16 08:16:29;;;;;;;0.97;0.87;;;20.70;37.20;;;;;;5068049;28;20236;-68
2023/04/16 08:18:59;;;;;;;0.60;0.60;;;20.60;37.30;;;;;;5066709;28;20203;-67
2023/04/16 08:21:28;;;;;;;0.67;0.60;;;20.60;36.80;;;;;;5066225;28;20186;-67
2023/04/16 08:23:55;;;;;;;0.70;0.63;;;20.50;36.80;;;;;;5069353;28;20183;-65
2023/04/16 08:26:23;;;;;;;1.50;0.70;;;20.50;37.00;;;;;;5065180;28;20186;-70
2023/04/16 08:28:50;;;;;;;0.77;0.70;;;20.40;36.90;;;;;;5068991;28;20226;-71
2023/04/16 08:31:17;;;;;;;1.10;0.80;;;20.40;37.50;;;;;;5068447;28;20179;-69
2023/04/16 08:33:45;;;;;;;0.67;0.63;;;20.40;37.40;;;;;;5066664;28;20274;-68
2023/04/16 08:36:12;;;;;;;2.63;0.70;;;20.30;37.60;;;;;;5071392;28;20258;-68
2023/04/16 08:38:39;;;;;;;0.70;0.70;;;20.20;38.00;;;;;;5070534;28;20172;-69
2023/04/16 08:41:11;;;;;;;1.07;0.70;;;20.20;37.90;;;;;;5066926;28;20226;-68
2023/04/16 08:43:43;;;;;;;2.20;0.90;;;20.10;38.20;;;;;;5073115;28;20224;-70
2023/04/16 08:46:11;;;;;;;1.20;0.90;;;20.00;38.60;;;;;;5072369;28;20278;-71
2023/04/16 08:48:42;;;;;;;1.33;0.90;;;20.00;38.80;;;;;;5071814;28;20248;-67
2023/04/16 08:51:11;;;;;;;1.10;0.90;;;19.90;39.10;;;;;;5073195;28;20275;-69
2023/04/16 08:53:59;;;;;;;3.13;1.20;;;19.80;39.20;;;;;;5074292;28;20232;-68
2023/04/16 08:56:27;;;;;;;0.80;0.80;;;19.80;39.50;;;;;;5073884;28;20186;-72
2023/04/16 08:58:57;;;;;;;1.07;0.93;;;19.70;40.10;;;;;;5073344;28;20194;-71
2023/04/16 09:01:28;;;;;;;1.00;0.70;;;19.60;40.40;;;;;;5071314;28;20213;-72
2023/04/16 09:03:56;;;;;;;1.67;0.80;;;19.60;40.20;;;;;;5070381;28;20267;-68
2023/04/16 09:06:25;;;;;;;2.10;0.97;;;19.50;40.50;;;;;;5074410;28;20192;-70
2023/04/16 09:08:54;;;;;;;1.73;1.10;;;19.50;40.50;;;;;;5071388;28;20229;-67
2023/04/16 09:11:21;;;;;;;0.73;0.73;;;19.40;41.20;;;;;;5076233;28;20572;-72
2023/04/16 09:13:49;;;;;;;1.30;1.00;;;19.40;41.00;;;;;;5072787;28;20468;-69
2023/04/16 09:16:17;;;;;;;0.80;0.73;;;19.30;41.30;;;;;;5071739;28;20172;-67
2023/04/16 09:18:46;;;;;;;1.40;0.70;;;19.30;41.60;;;;;;5073650;28;20652;-69
2023/04/16 09:21:14;;;;;;;1.93;0.70;;;19.30;41.60;;;;;;5066791;28;20187;-71
2023/04/16 09:23:42;;;;;;;1.57;0.93;;;19.30;41.90;;;;;;5073510;28;20182;-68
2023/04/16 09:26:10;;;;;;;1.40;0.80;;;19.20;41.90;;;;;;5074669;28;20237;-70
2023/04/16 09:28:48;;;;;;;4.30;0.90;;;19.20;41.90;;;;;;5073802;28;20219;-72
2023/04/16 09:31:17;;;;;;;1.27;0.80;;;19.20;41.70;;;;;;5065364;28;20195;-71
2023/04/16 09:34:04;;;;;;;1.73;0.93;;;19.30;41.60;;;;;;5070181;28;20187;-71
2023/04/16 09:36:32;;;;;;;1.37;1.13;;;19.40;41.70;;;;;;5069237;28;20219;-66
2023/04/16 09:39:00;;;;;;;1.37;0.90;;;19.30;42.10;;;;;;5072485;28;20180;-67
2023/04/16 09:41:34;;;;;;;2.30;1.17;;;19.20;41.90;;;;;;5073169;28;20548;-66
2023/04/16 09:44:04;;;;;;;2.10;1.10;;;19.20;42.40;;;;;;5071720;28;20182;-67
2023/04/16 09:46:44;;;;;;;1.80;0.90;;;19.20;42.60;;;;;;5072329;28;20223;-65
2023/04/16 09:49:17;;;;;;;1.10;0.90;;;19.20;42.50;;;;;;5068655;28;20745;-66
2023/04/16 09:51:46;;;;;;;2.30;1.10;;;19.20;42.60;;;;;;5071906;28;20236;-66
2023/04/16 09:54:14;;;;;;;2.00;1.10;;;19.10;43.00;;;;;;5069350;28;20182;-67
2023/04/16 09:56:46;;;;;;;1.97;1.10;;;19.00;43.30;;;;;;5065970;28;20271;-66
2023/04/16 09:59:20;;;;;;;1.40;1.20;;;19.00;43.20;;;;;;5069469;28;20185;-66
2023/04/16 10:01:48;;;;;;;1.80;1.03;;;19.00;43.30;;;;;;5070923;28;20183;-65
2023/04/16 10:04:16;;;;;;;1.10;1.00;;;18.90;43.50;;;;;;5071498;28;20182;-67
2023/04/16 10:06:47;;;;;;;1.10;1.00;;;18.80;43.70;;;;;;5072560;28;20221;-67
2023/04/16 10:09:14;;;;;;;1.07;0.77;;;18.80;44.10;;;;;;5067355;28;20215;-66
2023/04/16 10:11:42;;;;;;;1.30;0.80;;;18.80;44.20;;;;;;5068604;28;20278;-66
2023/04/16 10:14:09;;;;;;;1.03;0.90;;;18.80;44.20;;;;;;5069576;28;20278;-66
2023/04/16 10:16:39;;;;;;;2.10;1.10;;;18.80;43.80;;;;;;5073112;28;20186;-66
2023/04/16 10:19:07;;;;;;;1.33;1.00;;;18.90;44.20;;;;;;5068841;28;20187;-68
2023/04/16 10:21:34;;;;;;;1.40;1.00;;;18.80;44.20;;;;;;5071831;28;20207;-65
2023/04/16 10:24:02;;;;;;;1.93;0.90;;;18.80;44.70;;;;;;5069074;28;20190;-67
2023/04/16 10:26:30;;;;;;;1.70;1.10;;;18.70;45.10;;;;;;5074830;28;20189;-66
2023/04/16 10:28:59;;;;;;;2.27;1.10;;;18.60;45.10;;;;;;5071720;28;20226;-66
2023/04/16 10:31:27;;;;;;;1.43;1.00;;;18.50;45.80;;;;;;5072647;28;20183;-66
2023/04/16 10:33:55;;;;;;;1.47;1.00;;;18.40;46.20;;;;;;5071397;28;20743;-65
2023/04/16 10:36:26;;;;;;;1.40;0.97;;;18.40;46.30;;;;;;5070942;28;20716;-67
2023/04/16 10:39:00;;;;;;;1.73;1.20;;;18.40;46.70;;;;;;5070849;28;20183;-66
2023/04/16 10:41:27;;;;;;;1.53;1.00;;;18.50;46.70;;;;;;5066813;28;20249;-65
2023/04/16 10:44:11;;;;;;;1.17;0.93;;;18.40;47.10;;;;;;5071818;28;20605;-66
2023/04/16 10:46:43;;;;;;;1.13;0.90;;;18.40;47.10;;;;;;5068871;28;20573;-66
2023/04/16 10:49:18;;;;;;;2.13;1.13;;;18.30;47.50;;;;;;5070878;28;20175;-66
2023/04/16 10:52:10;;;;;;;1.60;1.10;;;18.30;47.70;;;;;;5072310;28;20265;-67
2023/04/16 10:54:38;;;;;;;1.53;1.13;;;18.30;48.20;;;;;;5072874;28;20577;-67
2023/04/16 10:57:14;;;;;;;3.23;1.27;;;18.30;48.40;;;;;;5071123;28;20179;-65
2023/04/16 10:59:43;;;;;;;1.87;0.93;;;18.30;48.30;;;;;;5072809;28;20210;-66
2023/04/16 11:02:17;;;;;;;1.63;1.00;;;18.30;48.70;;;;;;5070004;28;20198;-66
2023/04/16 11:04:46;;;;;;;2.00;0.90;;;18.30;48.70;;;;;;5063256;28;20630;-66
2023/04/16 11:07:19;;;;;;;1.93;1.00;;;18.30;48.90;;;;;;5067470;28;20658;-66
2023/04/16 11:10:06;;;;;;;2.17;1.10;;;18.20;49.60;;;;;;5069869;28;20255;-67
2023/04/16 11:12:39;;;;;;;2.30;1.00;;;18.10;49.70;;;;;;5071408;28;20748;-66
2023/04/16 11:15:07;;;;;;;1.67;0.93;;;18.10;49.80;;;;;;5071499;28;20175;-67
2023/04/16 11:17:47;;;;;;;3.97;1.10;;;18.10;49.80;;;;;;5071325;28;20229;-66
2023/04/16 11:20:20;;;;;;;0.97;0.87;;;18.00;50.20;;;;;;5064402;28;20218;-66
2023/04/16 11:22:48;;;;;;;1.20;0.93;;;17.90;50.70;;;;;;5068064;28;20616;-64
2023/04/16 11:25:26;;;;;;;3.57;0.90;;;17.90;50.90;;;;;;5068728;28;20183;-66
2023/04/16 11:27:54;;;;;;;1.47;0.80;;;17.90;50.90;;;;;;5070448;28;20335;-66
2023/04/16 11:30:36;;;;;;;1.40;0.90;;;17.80;51.30;;;;;;5069465;28;20195;-66
2023/04/16 11:33:10;;;;;;;1.97;1.17;;;17.80;51.60;;;;;;5070612;28;20191;-66
2023/04/16 11:35:39;;;;;;;4.47;1.20;;;17.80;51.40;;;;;;5070851;28;20696;-67
2023/04/16 11:38:06;;;;;;;1.77;1.00;;;17.80;51.90;;;;;;5072020;28;20248;-67
2023/04/16 11:40:35;;;;;;;2.40;1.00;;;17.70;51.90;;;;;;5071278;28;20175;-66
2023/04/16 11:43:13;;;;;;;2.20;1.30;;;17.60;52.50;;;;;;5071400;28;20650;-66
2023/04/16 11:45:57;;;;;;;1.53;1.13;;;17.50;52.80;;;;;;5068181;28;20182;-67
2023/04/16 11:48:46;;;;;;;4.17;1.20;;;17.50;52.80;;;;;;5067575;28;20309;-66
2023/04/16 11:51:14;;;;;;;2.40;1.50;;;17.50;52.90;;;;;;5065334;28;20247;-65
2023/04/16 11:53:55;;;;;;;3.47;2.20;;;17.50;53.30;;;;;;5071788;28;20186;-65
2023/04/16 11:56:30;;;;;;;1.50;1.40;;;17.40;53.70;;;;;;5067912;28;20183;-65
2023/04/16 11:59:14;;;;;;;1.83;1.40;;;17.40;53.40;;;;;;5070790;28;20207;-65
2023/04/16 12:01:45;;;;;;;1.53;1.00;;;17.30;54.20;;;;;;5071985;28;20178;-65
2023/04/16 12:04:15;;;;;;;2.00;1.20;;;17.40;54.00;;;;;;5069636;28;20199;-66
2023/04/16 12:07:08;;;;;;;1.57;1.10;;;17.30;53.80;;;;;;5070243;28;20179;-66
2023/04/16 12:09:36;;;;;;;2.27;1.07;;;17.30;54.20;;;;;;5072641;28;20222;-65
2023/04/16 12:12:05;;;;;;;1.50;1.17;;;17.30;54.20;;;;;;5070776;28;20545;-65
2023/04/16 12:14:32;;;;;;;1.70;1.10;;;17.20;54.40;;;;;;5071959;28;20179;-66
2023/04/16 12:17:21;;;;;;;1.90;1.20;;;17.20;54.50;;;;;;5070796;28;20183;-65
2023/04/16 12:20:04;;;;;;;1.87;1.00;;;17.20;54.90;;;;;;5074208;28;20579;-65
2023/04/16 12:22:35;;;;;;;2.13;1.00;;;17.20;54.80;;;;;;5075480;28;20572;-65
2023/04/16 12:25:10;;;;;;;2.93;1.17;;;17.10;55.60;;;;;;5070870;28;20194;-65
2023/04/16 12:27:51;;;;;;;2.80;1.00;;;17.10;55.40;;;;;;5074075;28;20217;-66
2023/04/16 12:30:21;;;;;;;1.80;1.10;;;17.00;55.40;;;;;;5068793;28;20217;-65
2023/04/16 12:32:50;;;;;;;1.50;1.00;;;16.90;55.90;;;;;;5074909;28;20649;-66
2023/04/16 12:35:32;;;;;;;2.33;1.07;;;16.80;56.50;;;;;;5074389;28;20176;-66
2023/04/16 12:38:00;;;;;;;2.10;1.27;;;16.80;56.60;;;;;;5076377;28;20190;-66
2023/04/16 12:40:27;;;;;;;6.47;1.20;;;16.80;56.70;;;;;;5073293;28;20557;-65
2023/04/16 12:42:55;;;;;;;1.60;0.90;;;16.80;56.80;;;;;;5074312;28;20718;-66
2023/04/16 12:45:23;;;;;;;1.00;1.00;;;16.80;57.00;;;;;;5075162;28;20190;-65
2023/04/16 12:47:50;;;;;;;2.20;1.30;;;16.70;57.10;;;;;;5072527;28;20215;-66
2023/04/16 12:50:18;;;;;;;2.03;1.00;;;16.70;57.50;;;;;;5074421;28;20182;-67
2023/04/16 12:52:46;;;;;;;1.97;1.30;;;16.60;58.10;;;;;;5074825;28;20684;-66
2023/04/16 12:55:13;;;;;;;1.37;1.03;;;16.50;58.00;;;;;;5074095;28;20193;-66
2023/04/16 12:57:41;;;;;;;1.33;1.00;;;16.50;58.60;;;;;;5074098;28;20224;-66